Time;durP1;ratioP1;P1;durP2;ratioP2;P2;SDS_P1;SDS_P2;PMS_P1;PMS_P2;Temp;Humidity;BMP_temperature;BMP_pressure;BME280_temperature;BME280_humidity;BME280_pressure;Samples;Min_cycle;Max_cycle;Signal;HPM_P1;HPM_P2
2022/07/21 00:01:15;;;;;;;;;;;22.40;99.90;;;;;;8391275;28;19990;-66
2022/07/21 00:05:17;;;;;;;;;;;22.40;99.90;;;;;;8388702;28;19932;-66
2022/07/21 00:09:18;;;;;;;;;;;22.30;99.90;;;;;;8386089;28;19928;-66
2022/07/21 00:13:20;;;;;;;;;;;22.30;99.90;;;;;;8391904;28;19935;-66
2022/07/21 00:17:22;;;;;;;;;;;22.20;99.90;;;;;;8388029;28;20228;-66
2022/07/21 00:21:23;;;;;;;;;;;22.10;99.90;;;;;;8388607;28;20275;-66
2022/07/21 00:25:25;;;;;;;;;;;22.10;99.90;;;;;;8391785;28;20265;-66
2022/07/21 00:29:34;;;;;;;;;;;21.90;99.90;;;;;;8369575;28;19920;-66
2022/07/21 00:33:35;;;;;;;;;;;21.90;99.90;;;;;;8385989;28;19920;-66
2022/07/21 00:37:37;;;;;;;;;;;21.80;99.90;;;;;;8372561;28;20292;-66
2022/07/21 00:41:39;;;;;;;;;;;21.70;99.90;;;;;;8380297;28;19920;-66
2022/07/21 00:45:40;;;;;;;;;;;21.60;99.90;;;;;;8381662;28;20375;-66
2022/07/21 00:49:44;;;;;;;;;;;21.50;99.90;;;;;;8388142;28;20264;-66
2022/07/21 00:53:46;;;;;;;;;;;21.50;99.90;;;;;;8368679;28;20309;-66
2022/07/21 00:57:48;;;;;;;;;;;21.50;99.90;;;;;;8390746;28;19920;-66
2022/07/21 01:01:50;;;;;;;;;;;21.50;99.90;;;;;;8392331;28;19924;-66
2022/07/21 01:05:52;;;;;;;;;;;21.50;99.90;;;;;;8398892;28;19924;-66
2022/07/21 01:14:57;;;;;;;;;;;21.60;99.90;;;;;;8379240;28;20318;-66
2022/07/21 01:18:59;;;;;;;;;;;21.60;99.90;;;;;;8388318;28;19925;-66
2022/07/21 01:23:01;;;;;;;;;;;21.60;99.90;;;;;;8390894;28;19924;-66
2022/07/21 01:27:02;;;;;;;;;;;21.50;99.90;;;;;;8390801;28;19920;-66
2022/07/21 01:31:04;;;;;;;;;;;21.50;99.90;;;;;;8390363;28;19920;-66
2022/07/21 01:35:07;;;;;;;;;;;21.50;99.90;;;;;;8375802;28;19920;-66
2022/07/21 01:43:29;;;;;;;;;;;21.50;99.90;;;;;;8384862;28;19927;-66
2022/07/21 01:47:31;;;;;;;;;;;21.40;99.90;;;;;;8389342;28;19924;-66
2022/07/21 01:51:33;;;;;;;;;;;21.40;99.90;;;;;;8390744;28;19928;-66
2022/07/21 01:55:35;;;;;;;;;;;21.40;99.90;;;;;;8391496;28;20026;-66
2022/07/21 01:59:36;;;;;;;;;;;21.30;99.90;;;;;;8381080;28;20041;-66
2022/07/21 02:03:38;;;;;;;;;;;21.30;99.90;;;;;;8381918;28;20283;-66
2022/07/21 02:07:40;;;;;;;;;;;21.30;99.90;;;;;;8387102;28;19982;-66
2022/07/21 02:11:41;;;;;;;;;;;21.20;99.90;;;;;;8386852;28;19927;-66
2022/07/21 02:15:43;;;;;;;;;;;21.20;99.90;;;;;;8385427;28;19920;-66
2022/07/21 02:19:45;;;;;;;;;;;21.20;99.90;;;;;;8390219;28;19924;-66
2022/07/21 02:23:46;;;;;;;;;;;21.20;99.90;;;;;;8390723;28;19943;-66
2022/07/21 02:27:48;;;;;;;;;;;21.20;99.90;;;;;;8380682;28;19947;-66
2022/07/21 02:31:50;;;;;;;;;;;21.10;99.90;;;;;;8387702;28;20259;-66
2022/07/21 02:35:51;;;;;;;;;;;21.10;99.90;;;;;;8374409;28;19920;-66
2022/07/21 02:39:53;;;;;;;;;;;21.10;99.90;;;;;;8368752;28;19921;-66
2022/07/21 02:43:55;;;;;;;;;;;21.00;99.90;;;;;;8382532;28;19932;-66
2022/07/21 02:48:04;;;;;;;;;;;21.00;99.90;;;;;;8388766;28;19921;-66
2022/07/21 02:52:06;;;;;;;;;;;21.00;99.90;;;;;;8390556;28;19936;-66
2022/07/21 02:56:07;;;;;;;;;;;20.90;99.90;;;;;;8382046;28;19920;-66
2022/07/21 03:00:10;;;;;;;;;;;20.90;99.90;;;;;;8387654;28;19944;-66
2022/07/21 03:04:11;;;;;;;;;;;20.90;99.90;;;;;;8384038;28;19920;-66
2022/07/21 03:08:14;;;;;;;;;;;20.90;99.90;;;;;;8386846;28;19955;-66
2022/07/21 03:12:15;;;;;;;;;;;20.90;99.90;;;;;;8390384;28;19943;-66
2022/07/21 03:16:17;;;;;;;;;;;20.90;99.90;;;;;;8390666;28;19920;-66
2022/07/21 03:20:19;;;;;;;;;;;20.90;99.90;;;;;;8392127;28;19943;-66
2022/07/21 03:24:20;;;;;;;;;;;20.90;99.90;;;;;;8394654;28;20175;-66
2022/07/21 03:28:22;;;;;;;;;;;20.80;99.90;;;;;;8390115;28;19920;-66
2022/07/21 03:32:24;;;;;;;;;;;20.70;99.90;;;;;;8381956;28;19963;-66
2022/07/21 03:36:25;;;;;;;;;;;20.70;99.90;;;;;;8385101;28;19921;-66
2022/07/21 03:40:31;;;;;;;;;;;20.60;99.90;;;;;;8391624;28;19924;-66
2022/07/21 03:44:33;;;;;;;;;;;20.60;99.90;;;;;;8382428;28;19931;-66
2022/07/21 03:48:34;;;;;;;;;;;20.50;99.90;;;;;;8382792;28;19967;-66
2022/07/21 03:52:36;;;;;;;;;;;20.50;99.90;;;;;;8388869;28;19920;-66
2022/07/21 04:07:04;;;;;;;;;;;20.50;99.90;;;;;;8392624;28;20263;-66
2022/07/21 04:11:05;;;;;;;;;;;20.50;99.90;;;;;;8394928;28;20343;-66
2022/07/21 04:15:08;;;;;;;;;;;20.50;99.90;;;;;;8382260;28;20279;-66
2022/07/21 04:19:09;;;;;;;;;;;20.50;99.90;;;;;;8369169;28;19966;-66
2022/07/21 04:23:11;;;;;;;;;;;20.50;99.90;;;;;;8387893;28;19924;-66
2022/07/21 04:27:13;;;;;;;;;;;20.50;99.90;;;;;;8386274;28;19920;-66
2022/07/21 04:31:14;;;;;;;;;;;20.50;99.90;;;;;;8392431;28;19939;-66
2022/07/21 04:40:20;;;;;;;;;;;20.50;99.90;;;;;;8383262;28;19958;-66
2022/07/21 04:44:21;;;;;;;;;;;20.40;99.90;;;;;;8389818;28;19924;-66
2022/07/21 04:48:23;;;;;;;;;;;20.40;99.90;;;;;;8375403;28;19928;-66
2022/07/21 04:52:24;;;;;;;;;;;20.40;99.90;;;;;;8388177;28;20440;-66
2022/07/21 04:56:26;;;;;;;;;;;20.40;99.90;;;;;;8381469;28;19943;-66
2022/07/21 05:00:29;;;;;;;;;;;20.40;99.90;;;;;;8380228;28;19920;-66
2022/07/21 05:04:31;;;;;;;;;;;20.40;99.90;;;;;;8385201;28;19931;-66
2022/07/21 05:08:32;;;;;;;;;;;20.30;99.90;;;;;;8385049;28;19928;-66
2022/07/21 05:12:34;;;;;;;;;;;20.30;99.90;;;;;;8365979;28;19920;-66
2022/07/21 05:16:36;;;;;;;;;;;20.30;99.90;;;;;;8390982;28;19939;-66
2022/07/21 05:20:37;;;;;;;;;;;20.30;99.90;;;;;;8389686;28;20410;-66
2022/07/21 05:24:39;;;;;;;;;;;20.20;99.90;;;;;;8384612;28;20295;-66
2022/07/21 05:28:41;;;;;;;;;;;20.30;99.90;;;;;;8383268;28;20398;-66
2022/07/21 05:32:42;;;;;;;;;;;20.30;99.90;;;;;;8382334;28;19921;-66
2022/07/21 05:36:48;;;;;;;;;;;20.30;99.90;;;;;;8376250;28;19974;-66
2022/07/21 05:40:50;;;;;;;;;;;20.20;99.90;;;;;;8378737;28;19928;-66
2022/07/21 05:44:52;;;;;;;;;;;20.20;99.90;;;;;;8387249;28;19924;-66
2022/07/21 05:48:54;;;;;;;;;;;20.20;99.90;;;;;;8379075;28;19927;-66
2022/07/21 05:52:56;;;;;;;;;;;20.20;99.90;;;;;;8352759;28;19921;-66
2022/07/21 05:56:58;;;;;;;;;;;20.30;99.90;;;;;;8352844;28;19924;-66
2022/07/21 06:01:09;;;;;;;;;;;20.30;99.90;;;;;;8368027;28;19925;-66
2022/07/21 06:05:11;;;;;;;;;;;20.30;99.90;;;;;;8334943;28;19929;-66
2022/07/21 06:09:13;;;;;;;;;;;20.30;99.90;;;;;;8350739;28;19925;-66
2022/07/21 06:13:15;;;;;;;;;;;20.30;99.90;;;;;;8350912;28;19932;-66
2022/07/21 06:17:17;;;;;;;;;;;20.30;99.90;;;;;;8353680;28;19924;-66
2022/07/21 06:21:18;;;;;;;;;;;20.30;99.90;;;;;;8359796;28;19928;-66
2022/07/21 06:25:20;;;;;;;;;;;20.30;99.90;;;;;;8373041;28;20371;-66
2022/07/21 06:29:22;;;;;;;;;;;20.30;99.90;;;;;;8357913;28;20171;-66
2022/07/21 06:43:25;;;;;;;;;;;20.40;99.90;;;;;;8354865;28;19919;-66
2022/07/21 06:47:29;;;;;;;;;;;20.40;99.90;;;;;;8359222;28;20433;-66
2022/07/21 06:51:30;;;;;;;;;;;20.30;99.90;;;;;;8358997;28;19924;-66
2022/07/21 06:55:32;;;;;;;;;;;20.30;99.90;;;;;;8357990;28;19924;-66
2022/07/21 06:59:34;;;;;;;;;;;20.30;99.90;;;;;;8358048;28;19920;-66
2022/07/21 07:03:36;;;;;;;;;;;20.40;99.90;;;;;;8372079;28;19927;-66
2022/07/21 07:07:38;;;;;;;;;;;20.40;99.90;;;;;;8357906;28;19974;-66
2022/07/21 07:11:40;;;;;;;;;;;20.40;99.90;;;;;;8357285;28;20257;-66
2022/07/21 07:15:52;;;;;;;;;;;20.50;99.90;;;;;;8356041;28;19944;-66
2022/07/21 07:19:54;;;;;;;;;;;20.50;99.90;;;;;;8359042;28;19920;-66
2022/07/21 07:23:56;;;;;;;;;;;20.50;99.90;;;;;;8355037;28;20383;-66
2022/07/21 07:27:58;;;;;;;;;;;20.50;99.90;;;;;;8355817;28;20317;-66
2022/07/21 07:31:59;;;;;;;;;;;20.60;99.90;;;;;;8356866;28;19928;-66
2022/07/21 07:36:01;;;;;;;;;;;20.70;99.90;;;;;;8372828;28;19974;-66
2022/07/21 07:40:05;;;;;;;;;;;20.70;99.90;;;;;;8355501;28;20307;-66
2022/07/21 07:44:06;;;;;;;;;;;20.60;99.90;;;;;;8354605;28;19921;-66
2022/07/21 07:48:08;;;;;;;;;;;20.50;99.90;;;;;;8355710;28;19925;-66
2022/07/21 07:52:10;;;;;;;;;;;20.40;99.90;;;;;;8355676;28;20287;-66
2022/07/21 07:56:11;;;;;;;;;;;20.40;99.90;;;;;;8373729;28;19925;-66
2022/07/21 08:00:17;;;;;;;;;;;20.30;99.90;;;;;;8371626;28;19925;-66
2022/07/21 08:04:40;;;;;;;;;;;20.20;99.90;;;;;;8339763;28;19971;-66
2022/07/21 08:08:42;;;;;;;;;;;20.20;99.90;;;;;;8355059;28;19925;-66
2022/07/21 08:12:44;;;;;;;;;;;20.20;99.90;;;;;;8354439;28;20057;-66
2022/07/21 08:16:46;;;;;;;;;;;20.10;99.90;;;;;;8354639;28;19928;-66
2022/07/21 08:20:48;;;;;;;;;;;20.00;99.90;;;;;;8354777;28;19924;-66
2022/07/21 08:24:49;;;;;;;;;;;20.00;99.90;;;;;;8353722;28;19931;-66
2022/07/21 08:28:52;;;;;;;;;;;20.00;99.90;;;;;;8339873;28;19927;-66
2022/07/21 08:32:53;;;;;;;;;;;20.00;99.90;;;;;;8355107;28;19925;-66
2022/07/21 08:36:55;;;;;;;;;;;20.00;99.90;;;;;;8353595;28;20391;-66
2022/07/21 08:40:57;;;;;;;;;;;20.00;99.90;;;;;;8351641;28;20391;-66
2022/07/21 08:44:59;;;;;;;;;;;20.00;99.90;;;;;;8352675;28;20281;-66
2022/07/21 08:49:02;;;;;;;;;;;20.00;99.90;;;;;;8353956;28;20039;-66
2022/07/21 08:53:04;;;;;;;;;;;20.10;99.90;;;;;;8353096;28;19959;-66
2022/07/21 08:57:06;;;;;;;;;;;20.00;99.90;;;;;;8354274;28;20002;-66
2022/07/21 09:01:07;;;;;;;;;;;20.00;99.90;;;;;;8354617;28;19924;-66
2022/07/21 09:05:10;;;;;;;;;;;20.00;99.90;;;;;;8351305;28;20321;-66
2022/07/21 09:09:18;;;;;;;;;;;19.90;99.90;;;;;;8353864;28;20291;-66
2022/07/21 09:13:20;;;;;;;;;;;19.80;99.90;;;;;;8351432;28;20000;-65
2022/07/21 09:17:21;;;;;;;;;;;19.80;99.90;;;;;;8355086;28;19924;-66
2022/07/21 09:21:35;;;;;;;;;;;19.80;99.90;;;;;;8353823;28;20371;-65
2022/07/21 09:25:38;;;;;;;;;;;19.80;99.90;;;;;;8351607;28;19924;-66
2022/07/21 09:29:40;;;;;;;;;;;19.80;99.90;;;;;;8353670;28;19947;-66
2022/07/21 09:33:43;;;;;;;;;;;19.80;99.90;;;;;;8352584;28;19925;-65
2022/07/21 09:37:45;;;;;;;;;;;19.70;99.90;;;;;;8352172;28;19951;-66
2022/07/21 09:41:47;;;;;;;;;;;19.70;99.90;;;;;;8352356;28;20649;-66
2022/07/21 09:45:48;;;;;;;;;;;19.70;99.90;;;;;;8353658;28;20228;-66
2022/07/21 09:49:50;;;;;;;;;;;19.70;99.90;;;;;;8336695;28;19928;-65
2022/07/21 09:54:13;;;;;;;;;;;19.70;99.90;;;;;;8358426;28;20007;-66
2022/07/21 09:58:15;;;;;;;;;;;19.70;99.90;;;;;;8359518;28;20343;-66
2022/07/21 10:02:18;;;;;;;;;;;19.70;99.90;;;;;;8359572;28;19995;-66
2022/07/21 10:06:22;;;;;;;;;;;19.70;99.90;;;;;;8340783;28;20424;-66
2022/07/21 10:10:24;;;;;;;;;;;19.80;99.90;;;;;;8357914;28;19932;-66
2022/07/21 10:14:46;;;;;;;;;;;19.80;99.90;;;;;;8357187;28;19927;-66
2022/07/21 10:18:51;;;;;;;;;;;19.70;99.90;;;;;;8358258;28;20674;-65
2022/07/21 10:23:12;;;;;;;;;;;19.70;99.90;;;;;;8374612;28;20008;-65
2022/07/21 10:27:19;;;;;;;;;;;19.60;99.90;;;;;;8358320;28;19920;-66
2022/07/21 10:31:40;;;;;;;;;;;19.60;99.90;;;;;;8374103;28;19927;-66
2022/07/21 10:35:43;;;;;;;;;;;19.50;99.90;;;;;;8357853;28;20332;-66
2022/07/21 10:39:45;;;;;;;;;;;19.50;99.90;;;;;;8358578;28;19963;-66
2022/07/21 10:43:47;;;;;;;;;;;19.40;99.90;;;;;;8359968;28;19929;-66
2022/07/21 10:47:49;;;;;;;;;;;19.40;99.90;;;;;;8358282;28;19937;-66
2022/07/21 10:51:51;;;;;;;;;;;19.50;99.90;;;;;;8360880;28;19932;-66
2022/07/21 10:55:53;;;;;;;;;;;19.50;99.90;;;;;;8357937;28;19924;-66
2022/07/21 11:00:13;;;;;;;;;;;19.50;99.90;;;;;;8358189;28;20015;-65
2022/07/21 11:04:20;;;;;;;;;;;19.50;99.90;;;;;;8371779;28;19925;-66
2022/07/21 11:08:29;;;;;;;;;;;19.60;99.90;;;;;;8357818;28;19951;-65
2022/07/21 11:12:49;;;;;;;;;;;19.60;99.90;;;;;;8340595;28;19920;-66
2022/07/21 11:16:55;;;;;;;;;;;19.50;99.90;;;;;;8359499;28;20364;-66
2022/07/21 11:21:01;;;;;;;;;;;19.50;99.90;;;;;;8357431;28;19944;-66
2022/07/21 11:25:04;;;;;;;;;;;19.50;99.90;;;;;;8355009;28;19921;-66
2022/07/21 11:29:06;;;;;;;;;;;19.50;99.90;;;;;;8356018;28;19974;-66
2022/07/21 11:33:07;;;;;;;;;;;19.50;99.90;;;;;;8339442;28;20367;-65
2022/07/21 11:37:10;;;;;;;;;;;19.50;99.90;;;;;;8356848;28;19924;-65
2022/07/21 11:41:32;;;;;;;;;;;19.50;99.90;;;;;;8354826;28;19972;-66
2022/07/21 11:45:34;;;;;;;;;;;19.50;99.90;;;;;;8337567;28;19925;-66
2022/07/21 11:49:36;;;;;;;;;;;19.50;99.90;;;;;;8356669;28;19924;-66
2022/07/21 11:53:43;;;;;;;;;;;19.50;99.90;;;;;;8370466;28;19920;-65
2022/07/21 11:57:45;;;;;;;;;;;19.40;99.90;;;;;;8356826;28;19928;-66
2022/07/21 12:01:59;;;;;;;;;;;19.40;99.90;;;;;;8355717;28;19975;-66
2022/07/21 12:06:01;;;;;;;;;;;19.50;99.90;;;;;;8338010;28;19921;-66
2022/07/21 12:10:04;;;;;;;;;;;19.40;99.90;;;;;;8355952;28;19928;-65
2022/07/21 12:14:05;;;;;;;;;;;19.50;99.90;;;;;;8355090;28;19928;-66
2022/07/21 12:18:08;;;;;;;;;;;19.50;99.90;;;;;;8371358;28;19920;-66
2022/07/21 12:22:10;;;;;;;;;;;19.60;99.90;;;;;;8354078;28;20288;-66
2022/07/21 12:26:22;;;;;;;;;;;19.60;99.90;;;;;;8354219;28;19920;-66
2022/07/21 12:30:30;;;;;;;;;;;19.70;99.90;;;;;;8354707;28;19970;-65
2022/07/21 12:34:31;;;;;;;;;;;19.70;99.90;;;;;;8369966;28;19990;-66
2022/07/21 12:38:38;;;;;;;;;;;19.70;99.90;;;;;;8353498;28;19929;-65
2022/07/21 12:42:39;;;;;;;;;;;19.60;99.90;;;;;;8352982;28;19921;-66
2022/07/21 12:46:43;;;;;;;;;;;19.60;99.90;;;;;;8354633;28;19921;-66
2022/07/21 12:50:57;;;;;;;;;;;19.60;99.90;;;;;;8370658;28;19925;-66
2022/07/21 12:54:59;;;;;;;;;;;19.70;99.90;;;;;;8353229;28;19920;-66
2022/07/21 12:59:01;;;;;;;;;;;19.70;99.90;;;;;;8353304;28;19921;-66
2022/07/21 13:03:03;;;;;;;;;;;19.70;99.90;;;;;;8336286;28;19921;-66
2022/07/21 13:07:05;;;;;;;;;;;19.70;99.90;;;;;;8355120;28;19930;-66
2022/07/21 13:11:07;;;;;;;;;;;19.70;99.90;;;;;;8353238;28;20391;-66
2022/07/21 13:15:09;;;;;;;;;;;19.70;99.90;;;;;;8352188;28;20383;-66
2022/07/21 13:19:11;;;;;;;;;;;19.70;99.90;;;;;;8353667;28;20153;-65
2022/07/21 13:23:13;;;;;;;;;;;19.70;99.90;;;;;;8367186;28;19932;-66
2022/07/21 13:27:15;;;;;;;;;;;19.60;99.90;;;;;;8351807;28;19920;-66
2022/07/21 13:31:17;;;;;;;;;;;19.60;99.90;;;;;;8354345;28;19921;-66
2022/07/21 13:35:18;;;;;;;;;;;19.60;99.90;;;;;;8351795;28;19986;-66
2022/07/21 13:39:28;;;;;;;;;;;19.60;99.90;;;;;;8352094;28;19975;-66
2022/07/21 13:43:50;;;;;;;;;;;19.70;99.90;;;;;;8350865;28;19928;-66
2022/07/21 13:47:53;;;;;;;;;;;19.60;99.90;;;;;;8353215;28;20195;-66
2022/07/21 13:51:54;;;;;;;;;;;19.70;99.90;;;;;;8354104;28;20043;-65
2022/07/21 13:55:56;;;;;;;;;;;19.60;99.90;;;;;;8352140;28;19928;-66
2022/07/21 13:59:59;;;;;;;;;;;19.60;99.90;;;;;;8352413;28;20212;-66
2022/07/21 14:04:01;;;;;;;;;;;19.60;99.90;;;;;;8351404;28;20774;-66
2022/07/21 14:08:03;;;;;;;;;;;19.50;99.90;;;;;;8351010;28;20352;-65
2022/07/21 14:12:05;;;;;;;;;;;19.50;99.90;;;;;;8354326;28;19929;-66
2022/07/21 14:16:06;;;;;;;;;;;19.50;99.90;;;;;;8352846;28;19928;-66
2022/07/21 14:20:08;;;;;;;;;;;19.50;99.90;;;;;;8351954;28;19925;-66
2022/07/21 14:28:30;;;;;;;;;;;19.60;99.90;;;;;;8350982;28;19944;-66
2022/07/21 14:32:32;;;;;;;;;;;19.60;99.90;;;;;;8351934;28;20390;-66
2022/07/21 14:36:34;;;;;;;;;;;19.60;99.90;;;;;;8350994;28;19935;-66
2022/07/21 14:40:36;;;;;;;;;;;19.70;99.90;;;;;;8357582;28;19935;-66
2022/07/21 14:44:39;;;;;;;;;;;19.70;99.90;;;;;;8356762;28;20355;-66
2022/07/21 14:48:40;;;;;;;;;;;19.80;99.90;;;;;;8359186;28;20384;-66
2022/07/21 15:07:30;;;;;;;;;;;19.90;99.90;;;;;;8357832;28;19936;-66
2022/07/21 15:11:31;;;;;;;;;;;19.90;99.90;;;;;;8358000;28;19939;-66
2022/07/21 15:15:35;;;;;;;;;;;19.90;99.90;;;;;;8355018;28;19924;-66
2022/07/21 15:19:36;;;;;;;;;;;19.90;99.90;;;;;;8357332;28;19921;-66
2022/07/21 15:23:38;;;;;;;;;;;19.80;99.90;;;;;;8355998;28;19927;-66
2022/07/21 15:27:41;;;;;;;;;;;19.70;99.90;;;;;;8356832;28;19924;-65
2022/07/21 15:31:43;;;;;;;;;;;19.60;99.90;;;;;;8358005;28;19921;-66
2022/07/21 15:35:46;;;;;;;;;;;19.60;99.90;;;;;;8354104;28;20441;-66
2022/07/21 15:39:47;;;;;;;;;;;19.60;99.90;;;;;;8356414;28;20304;-66
2022/07/21 15:43:49;;;;;;;;;;;19.60;99.90;;;;;;8356531;28;20323;-66
2022/07/21 15:47:55;;;;;;;;;;;19.60;99.90;;;;;;8358913;28;20379;-66
2022/07/21 15:51:56;;;;;;;;;;;19.60;99.90;;;;;;8355972;28;19928;-65
2022/07/21 15:55:58;;;;;;;;;;;19.60;99.90;;;;;;8355246;28;19920;-66
2022/07/21 16:00:00;;;;;;;;;;;19.50;99.90;;;;;;8355668;28;19928;-66
2022/07/21 16:04:01;;;;;;;;;;;19.50;99.90;;;;;;8354963;28;19920;-65
2022/07/21 16:08:03;;;;;;;;;;;19.40;99.90;;;;;;8372890;28;20122;-66
2022/07/21 16:12:06;;;;;;;;;;;19.40;99.90;;;;;;8355853;28;20284;-66
2022/07/21 16:16:08;;;;;;;;;;;19.30;99.90;;;;;;8354287;28;20356;-66
2022/07/21 16:20:10;;;;;;;;;;;19.20;99.90;;;;;;8355805;28;19921;-66
2022/07/21 16:24:14;;;;;;;;;;;19.20;99.90;;;;;;8370435;28;19929;-66
2022/07/21 16:28:16;;;;;;;;;;;19.10;99.90;;;;;;8354613;28;19927;-66
2022/07/21 16:32:17;;;;;;;;;;;19.10;99.90;;;;;;8354003;28;20387;-66
2022/07/21 16:36:19;;;;;;;;;;;19.00;99.90;;;;;;8353530;28;20406;-66
2022/07/21 16:40:21;;;;;;;;;;;18.90;99.90;;;;;;8353681;28;19936;-65
2022/07/21 16:44:23;;;;;;;;;;;18.90;99.90;;;;;;8353140;28;19931;-66
2022/07/21 16:48:24;;;;;;;;;;;18.90;99.90;;;;;;8355100;28;20050;-66
2022/07/21 16:52:26;;;;;;;;;;;18.80;99.90;;;;;;8353193;28;19924;-66
2022/07/21 16:56:27;;;;;;;;;;;18.80;99.90;;;;;;8353249;28;20606;-66
2022/07/21 17:00:29;;;;;;;;;;;18.80;99.90;;;;;;8353266;28;20402;-66
2022/07/21 17:04:31;;;;;;;;;;;18.80;99.90;;;;;;8350530;28;19921;-66
2022/07/21 17:08:32;;;;;;;;;;;18.80;99.90;;;;;;8372000;28;19925;-66
2022/07/21 17:27:58;;;;;;;;;;;18.80;99.90;;;;;;8353914;28;19915;-66
2022/07/21 17:32:00;;;;;;;;;;;18.80;99.90;;;;;;8351396;28;19925;-66
2022/07/21 17:36:02;;;;;;;;;;;18.80;99.90;;;;;;8352123;28;19932;-66
2022/07/21 17:50:15;;;;;;;;;;;18.70;99.90;;;;;;8355729;28;19943;-66
2022/07/21 17:54:17;;;;;;;;;;;18.60;99.90;;;;;;8350841;28;19928;-65
2022/07/21 18:02:39;;;;;;;;;;;18.60;99.90;;;;;;8351110;28;20019;-66
2022/07/21 18:06:41;;;;;;;;;;;18.70;99.90;;;;;;8352606;28;19921;-66
2022/07/21 18:10:43;;;;;;;;;;;18.60;99.90;;;;;;8354271;28;19928;-66
2022/07/21 18:14:44;;;;;;;;;;;18.60;99.90;;;;;;8354212;28;19936;-66
2022/07/21 18:18:46;;;;;;;;;;;18.60;99.90;;;;;;8359021;28;19928;-66
2022/07/21 18:22:49;;;;;;;;;;;18.60;99.90;;;;;;8359352;28;19921;-66
2022/07/21 18:26:51;;;;;;;;;;;18.50;99.90;;;;;;8374065;28;19971;-66
2022/07/21 18:30:52;;;;;;;;;;;18.50;99.90;;;;;;8357084;28;19927;-66
2022/07/21 18:34:54;;;;;;;;;;;18.50;99.90;;;;;;8355854;28;19924;-66
2022/07/21 18:38:56;;;;;;;;;;;18.50;99.90;;;;;;8357615;28;19921;-66
2022/07/21 18:42:58;;;;;;;;;;;18.50;99.90;;;;;;8357008;28;20371;-66
2022/07/21 18:47:00;;;;;;;;;;;18.50;99.90;;;;;;8360783;28;20374;-66
2022/07/21 18:51:02;;;;;;;;;;;18.50;99.90;;;;;;8359571;28;19932;-66
2022/07/21 18:55:04;;;;;;;;;;;18.40;99.90;;;;;;8357178;28;19967;-66
2022/07/21 18:59:06;;;;;;;;;;;18.40;99.90;;;;;;8356503;28;19920;-66
2022/07/21 19:03:08;;;;;;;;;;;18.40;99.90;;;;;;8372920;28;19932;-66
2022/07/21 19:07:09;;;;;;;;;;;18.30;99.90;;;;;;8358667;28;19927;-66
2022/07/21 19:11:31;;;;;;;;;;;18.30;99.90;;;;;;8358268;28;20020;-66
2022/07/21 19:15:33;;;;;;;;;;;18.30;99.90;;;;;;8356785;28;19921;-66
2022/07/21 19:19:34;;;;;;;;;;;18.30;99.90;;;;;;8357023;28;19947;-66
2022/07/21 19:23:36;;;;;;;;;;;18.30;99.90;;;;;;8354721;28;19920;-66
2022/07/21 19:27:38;;;;;;;;;;;18.30;99.90;;;;;;8358151;28;20398;-66
2022/07/21 19:31:40;;;;;;;;;;;18.30;99.90;;;;;;8356326;28;20892;-66
2022/07/21 19:35:42;;;;;;;;;;;18.20;99.90;;;;;;8354574;28;19956;-66
2022/07/21 19:39:44;;;;;;;;;;;18.20;99.90;;;;;;8356739;28;24462;-66
2022/07/21 19:43:46;;;;;;;;;;;18.20;99.90;;;;;;8354269;28;19929;-66
2022/07/21 19:47:48;;;;;;;;;;;18.20;99.90;;;;;;8357839;28;19921;-66
2022/07/21 19:51:50;;;;;;;;;;;18.20;99.90;;;;;;8370382;28;19941;-66
2022/07/21 19:55:51;;;;;;;;;;;18.30;99.90;;;;;;8355955;28;20360;-66
2022/07/21 19:59:53;;;;;;;;;;;18.30;99.90;;;;;;8337974;28;20390;-65
2022/07/21 20:03:55;;;;;;;;;;;18.20;99.90;;;;;;8354529;28;20340;-66
2022/07/21 20:07:57;;;;;;;;;;;18.30;99.90;;;;;;8373248;28;19925;-66
2022/07/21 20:11:59;;;;;;;;;;;18.30;99.90;;;;;;8353782;28;19921;-66
2022/07/21 20:16:01;;;;;;;;;;;18.30;99.90;;;;;;8354959;28;19970;-66
2022/07/21 20:20:03;;;;;;;;;;;18.20;99.90;;;;;;8355630;28;19929;-66
2022/07/21 20:24:05;;;;;;;;;;;18.20;99.90;;;;;;8354741;28;19928;-66
2022/07/21 20:28:07;;;;;;;;;;;18.10;99.90;;;;;;8353886;28;19924;-66
2022/07/21 20:37:00;;;;;;;;;;;18.10;99.90;;;;;;8354013;28;19925;-65
2022/07/21 20:41:02;;;;;;;;;;;18.10;99.90;;;;;;8355748;28;19924;-66
2022/07/21 20:45:04;;;;;;;;;;;18.10;99.90;;;;;;8353356;28;19921;-65
2022/07/21 20:49:06;;;;;;;;;;;18.10;99.90;;;;;;8353405;28;19929;-66
2022/07/21 20:53:10;;;;;;;;;;;18.10;99.90;;;;;;8352111;28;20417;-66
2022/07/21 20:57:29;;;;;;;;;;;18.10;99.90;;;;;;8355747;28;19978;-66
2022/07/21 21:01:31;;;;;;;;;;;18.10;99.90;;;;;;8376876;28;19921;-66
2022/07/21 21:05:32;;;;;;;;;;;18.10;99.90;;;;;;8378549;28;19924;-66
2022/07/21 21:09:34;;;;;;;;;;;18.00;99.90;;;;;;8390414;28;19921;-66
2022/07/21 21:13:36;;;;;;;;;;;18.00;99.90;;;;;;8388516;28;19920;-66
2022/07/21 21:17:37;;;;;;;;;;;17.90;99.90;;;;;;8393662;28;20347;-66
2022/07/21 21:21:39;;;;;;;;;;;17.90;99.90;;;;;;8380692;28;20380;-66
2022/07/21 21:25:41;;;;;;;;;;;17.90;99.90;;;;;;8374927;28;20284;-66
2022/07/21 21:29:43;;;;;;;;;;;17.90;99.90;;;;;;8391438;28;19927;-66
2022/07/21 21:33:45;;;;;;;;;;;17.80;99.90;;;;;;8390561;28;19932;-66
2022/07/21 21:37:46;;;;;;;;;;;17.80;99.90;;;;;;8369192;28;19928;-66
2022/07/21 21:41:48;;;;;;;;;;;17.70;99.90;;;;;;8392157;28;19920;-66
2022/07/21 21:45:50;;;;;;;;;;;17.70;99.90;;;;;;8392912;28;19924;-66
2022/07/21 21:49:52;;;;;;;;;;;17.70;99.90;;;;;;8383826;28;19979;-66
2022/07/21 21:53:53;;;;;;;;;;;17.60;99.90;;;;;;8379572;28;19943;-66
2022/07/21 21:57:55;;;;;;;;;;;17.60;99.90;;;;;;8366374;28;19924;-66
2022/07/21 22:01:57;;;;;;;;;;;17.60;99.90;;;;;;8370313;28;19921;-66
2022/07/21 22:05:58;;;;;;;;;;;17.60;99.90;;;;;;8386145;28;19924;-66
2022/07/21 22:10:00;;;;;;;;;;;17.60;99.90;;;;;;8373998;28;19924;-66
2022/07/21 22:14:02;;;;;;;;;;;17.60;99.90;;;;;;8389431;28;19920;-66
2022/07/21 22:18:03;;;;;;;;;;;17.60;99.90;;;;;;8375651;28;20375;-65
2022/07/21 22:22:05;;;;;;;;;;;17.60;99.90;;;;;;8379048;28;19998;-66
2022/07/21 22:26:08;;;;;;;;;;;17.60;99.90;;;;;;8372951;28;19924;-68
2022/07/21 22:30:09;;;;;;;;;;;17.60;99.90;;;;;;8385133;28;19921;-68
2022/07/21 22:34:11;;;;;;;;;;;17.60;99.90;;;;;;8384180;28;19920;-68
2022/07/21 22:38:13;;;;;;;;;;;17.60;99.90;;;;;;8368680;28;19940;-68
2022/07/21 22:42:14;;;;;;;;;;;17.60;99.90;;;;;;8388545;28;19928;-68
2022/07/21 22:46:16;;;;;;;;;;;17.60;99.90;;;;;;8387369;28;19920;-68
2022/07/21 22:50:18;;;;;;;;;;;17.60;99.90;;;;;;8380583;28;19997;-68
2022/07/21 22:54:19;;;;;;;;;;;17.60;99.90;;;;;;8382043;28;19931;-68
2022/07/21 22:58:21;;;;;;;;;;;17.70;99.90;;;;;;8381061;28;19929;-68
2022/07/21 23:12:37;;;;;;;;;;;17.60;99.90;;;;;;8393875;28;19934;-68
2022/07/21 23:16:39;;;;;;;;;;;17.60;99.90;;;;;;8397366;28;19920;-68
2022/07/21 23:20:40;;;;;;;;;;;17.60;99.90;;;;;;8380656;28;19947;-68
2022/07/21 23:24:42;;;;;;;;;;;17.60;99.90;;;;;;8390974;28;19920;-68
2022/07/21 23:28:44;;;;;;;;;;;17.60;99.90;;;;;;8378431;28;19920;-68
2022/07/21 23:32:46;;;;;;;;;;;17.60;99.90;;;;;;8389047;28;19947;-68
2022/07/21 23:36:47;;;;;;;;;;;17.60;99.90;;;;;;8381999;28;19928;-68
2022/07/21 23:40:49;;;;;;;;;;;17.50;99.90;;;;;;8386331;28;19974;-68
2022/07/21 23:44:51;;;;;;;;;;;17.50;99.90;;;;;;8385662;28;19931;-68
2022/07/21 23:54:18;;;;;;;;;;;17.50;99.90;;;;;;8388702;28;19966;-68
2022/07/21 23:58:19;;;;;;;;;;;17.60;99.90;;;;;;8393267;28;19925;-68
